sensor_id;sensor_type;location;lat;lon;timestamp;P1;durP1;ratioP1;P2;durP2;ratioP2
32790;SDS011;19143;59.322;14.502;2023-07-31T00:01:18;8.57;;;2.83;;
32790;SDS011;19143;59.322;14.502;2023-07-31T00:03:49;6.13;;;2.47;;
32790;SDS011;19143;59.322;14.502;2023-07-31T00:06:20;2.93;;;2.47;;
32790;SDS011;19143;59.322;14.502;2023-07-31T00:08:51;5.83;;;2.83;;
32790;SDS011;19143;59.322;14.502;2023-07-31T00:11:19;4.00;;;2.50;;
32790;SDS011;19143;59.322;14.502;2023-07-31T00:13:47;4.97;;;2.50;;
32790;SDS011;19143;59.322;14.502;2023-07-31T00:16:15;9.43;;;3.07;;
32790;SDS011;19143;59.322;14.502;2023-07-31T00:18:44;8.63;;;2.90;;
32790;SDS011;19143;59.322;14.502;2023-07-31T00:21:14;12.77;;;2.93;;
32790;SDS011;19143;59.322;14.502;2023-07-31T00:23:45;7.50;;;2.60;;
32790;SDS011;19143;59.322;14.502;2023-07-31T00:26:15;9.10;;;3.43;;
32790;SDS011;19143;59.322;14.502;2023-07-31T00:28:44;4.73;;;2.83;;
32790;SDS011;19143;59.322;14.502;2023-07-31T00:31:13;3.50;;;2.40;;
32790;SDS011;19143;59.322;14.502;2023-07-31T00:33:41;4.13;;;2.50;;
32790;SDS011;19143;59.322;14.502;2023-07-31T00:36:08;3.43;;;2.77;;
32790;SDS011;19143;59.322;14.502;2023-07-31T00:38:37;7.07;;;2.73;;
32790;SDS011;19143;59.322;14.502;2023-07-31T00:41:10;11.47;;;2.90;;
32790;SDS011;19143;59.322;14.502;2023-07-31T00:43:39;3.87;;;2.43;;
32790;SDS011;19143;59.322;14.502;2023-07-31T00:46:07;5.07;;;2.90;;
32790;SDS011;19143;59.322;14.502;2023-07-31T00:48:36;5.53;;;2.67;;
32790;SDS011;19143;59.322;14.502;2023-07-31T00:51:06;7.60;;;2.87;;
32790;SDS011;19143;59.322;14.502;2023-07-31T00:53:36;8.17;;;2.80;;
32790;SDS011;19143;59.322;14.502;2023-07-31T00:56:05;11.20;;;3.27;;
32790;SDS011;19143;59.322;14.502;2023-07-31T00:58:37;3.40;;;2.63;;
32790;SDS011;19143;59.322;14.502;2023-07-31T01:01:10;9.03;;;3.13;;
32790;SDS011;19143;59.322;14.502;2023-07-31T01:03:39;6.17;;;3.40;;
32790;SDS011;19143;59.322;14.502;2023-07-31T01:06:14;5.83;;;3.00;;
32790;SDS011;19143;59.322;14.502;2023-07-31T01:08:47;7.00;;;3.00;;
32790;SDS011;19143;59.322;14.502;2023-07-31T01:11:22;5.73;;;3.27;;
32790;SDS011;19143;59.322;14.502;2023-07-31T01:13:56;6.33;;;3.03;;
32790;SDS011;19143;59.322;14.502;2023-07-31T01:16:25;9.10;;;3.00;;
32790;SDS011;19143;59.322;14.502;2023-07-31T01:18:54;4.20;;;2.50;;
32790;SDS011;19143;59.322;14.502;2023-07-31T01:21:27;4.67;;;2.87;;
32790;SDS011;19143;59.322;14.502;2023-07-31T01:24:08;3.67;;;2.97;;
32790;SDS011;19143;59.322;14.502;2023-07-31T01:26:41;4.60;;;2.87;;
32790;SDS011;19143;59.322;14.502;2023-07-31T01:29:13;5.87;;;2.57;;
32790;SDS011;19143;59.322;14.502;2023-07-31T01:31:44;8.57;;;2.80;;
32790;SDS011;19143;59.322;14.502;2023-07-31T01:34:15;4.27;;;2.90;;
32790;SDS011;19143;59.322;14.502;2023-07-31T01:36:46;6.33;;;2.90;;
32790;SDS011;19143;59.322;14.502;2023-07-31T01:39:14;4.87;;;2.40;;
32790;SDS011;19143;59.322;14.502;2023-07-31T01:41:44;6.10;;;2.80;;
32790;SDS011;19143;59.322;14.502;2023-07-31T01:44:14;7.93;;;2.80;;
32790;SDS011;19143;59.322;14.502;2023-07-31T01:46:42;5.30;;;2.23;;
32790;SDS011;19143;59.322;14.502;2023-07-31T01:49:10;3.63;;;2.30;;
32790;SDS011;19143;59.322;14.502;2023-07-31T01:51:38;4.63;;;2.70;;
32790;SDS011;19143;59.322;14.502;2023-07-31T01:54:06;4.53;;;2.30;;
32790;SDS011;19143;59.322;14.502;2023-07-31T01:56:36;7.17;;;2.50;;
32790;SDS011;19143;59.322;14.502;2023-07-31T01:59:08;10.43;;;2.70;;
32790;SDS011;19143;59.322;14.502;2023-07-31T02:01:37;4.53;;;2.40;;
32790;SDS011;19143;59.322;14.502;2023-07-31T02:04:06;5.67;;;2.30;;
32790;SDS011;19143;59.322;14.502;2023-07-31T02:06:34;3.93;;;2.70;;
32790;SDS011;19143;59.322;14.502;2023-07-31T02:09:02;7.57;;;2.60;;
32790;SDS011;19143;59.322;14.502;2023-07-31T02:11:30;3.27;;;2.50;;
32790;SDS011;19143;59.322;14.502;2023-07-31T02:13:58;3.30;;;2.73;;
32790;SDS011;19143;59.322;14.502;2023-07-31T02:16:28;5.57;;;2.87;;
32790;SDS011;19143;59.322;14.502;2023-07-31T02:18:56;5.67;;;2.30;;
32790;SDS011;19143;59.322;14.502;2023-07-31T02:21:24;2.10;;;1.90;;
32790;SDS011;19143;59.322;14.502;2023-07-31T02:23:53;4.57;;;2.60;;
32790;SDS011;19143;59.322;14.502;2023-07-31T02:26:24;4.13;;;2.23;;
32790;SDS011;19143;59.322;14.502;2023-07-31T02:28:54;7.17;;;2.40;;
32790;SDS011;19143;59.322;14.502;2023-07-31T02:31:22;5.67;;;2.47;;
32790;SDS011;19143;59.322;14.502;2023-07-31T02:33:54;8.60;;;2.30;;
32790;SDS011;19143;59.322;14.502;2023-07-31T02:36:22;4.70;;;2.33;;
32790;SDS011;19143;59.322;14.502;2023-07-31T02:38:51;2.90;;;2.30;;
32790;SDS011;19143;59.322;14.502;2023-07-31T02:41:19;6.23;;;2.40;;
32790;SDS011;19143;59.322;14.502;2023-07-31T02:43:48;3.90;;;2.30;;
32790;SDS011;19143;59.322;14.502;2023-07-31T02:46:16;5.03;;;2.30;;
32790;SDS011;19143;59.322;14.502;2023-07-31T02:48:44;4.73;;;2.40;;
32790;SDS011;19143;59.322;14.502;2023-07-31T02:51:14;2.93;;;2.63;;
32790;SDS011;19143;59.322;14.502;2023-07-31T02:53:42;4.00;;;2.20;;
32790;SDS011;19143;59.322;14.502;2023-07-31T02:56:10;2.10;;;2.00;;
32790;SDS011;19143;59.322;14.502;2023-07-31T02:58:41;5.43;;;2.20;;
32790;SDS011;19143;59.322;14.502;2023-07-31T03:01:09;5.57;;;2.10;;
32790;SDS011;19143;59.322;14.502;2023-07-31T03:03:37;2.60;;;2.40;;
32790;SDS011;19143;59.322;14.502;2023-07-31T03:06:05;7.17;;;2.20;;
32790;SDS011;19143;59.322;14.502;2023-07-31T03:11:35;6.10;;;2.50;;
32790;SDS011;19143;59.322;14.502;2023-07-31T03:14:03;2.30;;;2.10;;
32790;SDS011;19143;59.322;14.502;2023-07-31T03:16:31;6.10;;;2.43;;
32790;SDS011;19143;59.322;14.502;2023-07-31T03:18:59;3.07;;;2.00;;
32790;SDS011;19143;59.322;14.502;2023-07-31T03:21:28;5.53;;;2.23;;
32790;SDS011;19143;59.322;14.502;2023-07-31T03:23:57;3.50;;;2.07;;
32790;SDS011;19143;59.322;14.502;2023-07-31T03:26:25;2.73;;;1.90;;
32790;SDS011;19143;59.322;14.502;2023-07-31T03:28:55;4.53;;;2.13;;
32790;SDS011;19143;59.322;14.502;2023-07-31T03:31:23;3.87;;;1.90;;
32790;SDS011;19143;59.322;14.502;2023-07-31T03:33:52;2.57;;;2.30;;
32790;SDS011;19143;59.322;14.502;2023-07-31T03:36:21;3.13;;;2.40;;
32790;SDS011;19143;59.322;14.502;2023-07-31T03:38:50;2.20;;;2.00;;
32790;SDS011;19143;59.322;14.502;2023-07-31T03:41:19;2.30;;;2.10;;
32790;SDS011;19143;59.322;14.502;2023-07-31T03:43:50;5.63;;;2.20;;
32790;SDS011;19143;59.322;14.502;2023-07-31T03:46:23;3.53;;;2.97;;
32790;SDS011;19143;59.322;14.502;2023-07-31T03:48:52;3.23;;;2.20;;
32790;SDS011;19143;59.322;14.502;2023-07-31T03:51:20;2.13;;;1.90;;
32790;SDS011;19143;59.322;14.502;2023-07-31T03:53:48;4.23;;;2.20;;
32790;SDS011;19143;59.322;14.502;2023-07-31T03:56:17;6.43;;;1.93;;
32790;SDS011;19143;59.322;14.502;2023-07-31T03:58:45;2.17;;;1.97;;
32790;SDS011;19143;59.322;14.502;2023-07-31T04:01:13;3.70;;;2.00;;
32790;SDS011;19143;59.322;14.502;2023-07-31T04:03:43;5.13;;;2.23;;
32790;SDS011;19143;59.322;14.502;2023-07-31T04:06:11;4.20;;;2.20;;
32790;SDS011;19143;59.322;14.502;2023-07-31T04:08:39;6.70;;;2.20;;
32790;SDS011;19143;59.322;14.502;2023-07-31T04:11:07;7.33;;;2.03;;
32790;SDS011;19143;59.322;14.502;2023-07-31T04:13:35;2.20;;;2.10;;
32790;SDS011;19143;59.322;14.502;2023-07-31T04:16:03;2.83;;;1.83;;
32790;SDS011;19143;59.322;14.502;2023-07-31T04:18:31;4.80;;;1.97;;
32790;SDS011;19143;59.322;14.502;2023-07-31T04:21:01;2.80;;;2.10;;
32790;SDS011;19143;59.322;14.502;2023-07-31T04:23:29;6.97;;;2.20;;
32790;SDS011;19143;59.322;14.502;2023-07-31T04:25:58;2.17;;;1.77;;
32790;SDS011;19143;59.322;14.502;2023-07-31T04:28:26;2.40;;;1.70;;
32790;SDS011;19143;59.322;14.502;2023-07-31T04:30:57;7.70;;;2.10;;
32790;SDS011;19143;59.322;14.502;2023-07-31T04:33:24;5.53;;;2.03;;
32790;SDS011;19143;59.322;14.502;2023-07-31T04:35:54;3.60;;;1.90;;
32790;SDS011;19143;59.322;14.502;2023-07-31T04:38:24;2.27;;;1.73;;
32790;SDS011;19143;59.322;14.502;2023-07-31T04:40:52;6.97;;;2.00;;
32790;SDS011;19143;59.322;14.502;2023-07-31T04:43:20;3.10;;;1.97;;
32790;SDS011;19143;59.322;14.502;2023-07-31T04:45:48;2.47;;;1.90;;
32790;SDS011;19143;59.322;14.502;2023-07-31T04:48:17;7.70;;;2.20;;
32790;SDS011;19143;59.322;14.502;2023-07-31T04:50:45;2.60;;;1.87;;
32790;SDS011;19143;59.322;14.502;2023-07-31T04:53:13;2.73;;;1.70;;
32790;SDS011;19143;59.322;14.502;2023-07-31T04:55:43;1.83;;;1.50;;
32790;SDS011;19143;59.322;14.502;2023-07-31T04:58:11;4.17;;;1.80;;
32790;SDS011;19143;59.322;14.502;2023-07-31T05:00:39;1.70;;;1.60;;
32790;SDS011;19143;59.322;14.502;2023-07-31T05:03:08;3.67;;;1.70;;
32790;SDS011;19143;59.322;14.502;2023-07-31T05:05:38;4.10;;;1.40;;
32790;SDS011;19143;59.322;14.502;2023-07-31T05:08:06;1.90;;;1.70;;
32790;SDS011;19143;59.322;14.502;2023-07-31T05:10:34;2.70;;;2.40;;
32790;SDS011;19143;59.322;14.502;2023-07-31T05:13:04;4.50;;;1.90;;
32790;SDS011;19143;59.322;14.502;2023-07-31T05:15:32;4.13;;;1.97;;
32790;SDS011;19143;59.322;14.502;2023-07-31T05:18:01;5.10;;;2.20;;
32790;SDS011;19143;59.322;14.502;2023-07-31T05:20:30;1.93;;;1.60;;
32790;SDS011;19143;59.322;14.502;2023-07-31T05:22:58;2.00;;;1.67;;
32790;SDS011;19143;59.322;14.502;2023-07-31T05:25:27;6.17;;;1.77;;
32790;SDS011;19143;59.322;14.502;2023-07-31T05:27:56;1.67;;;1.57;;
32790;SDS011;19143;59.322;14.502;2023-07-31T05:30:26;1.80;;;1.53;;
32790;SDS011;19143;59.322;14.502;2023-07-31T05:32:54;1.70;;;1.60;;
32790;SDS011;19143;59.322;14.502;2023-07-31T05:35:23;3.43;;;1.50;;
32790;SDS011;19143;59.322;14.502;2023-07-31T05:37:51;3.23;;;2.13;;
32790;SDS011;19143;59.322;14.502;2023-07-31T05:40:19;3.33;;;1.80;;
32790;SDS011;19143;59.322;14.502;2023-07-31T05:42:50;3.07;;;1.50;;
32790;SDS011;19143;59.322;14.502;2023-07-31T05:45:19;1.67;;;1.57;;
32790;SDS011;19143;59.322;14.502;2023-07-31T05:47:48;8.33;;;1.70;;
32790;SDS011;19143;59.322;14.502;2023-07-31T05:50:17;6.27;;;2.00;;
32790;SDS011;19143;59.322;14.502;2023-07-31T05:52:46;1.80;;;1.50;;
32790;SDS011;19143;59.322;14.502;2023-07-31T05:55:20;7.17;;;1.60;;
32790;SDS011;19143;59.322;14.502;2023-07-31T05:57:49;2.20;;;1.60;;
32790;SDS011;19143;59.322;14.502;2023-07-31T06:00:18;6.27;;;2.40;;
32790;SDS011;19143;59.322;14.502;2023-07-31T06:02:49;2.53;;;1.80;;
32790;SDS011;19143;59.322;14.502;2023-07-31T06:05:17;3.90;;;1.97;;
32790;SDS011;19143;59.322;14.502;2023-07-31T06:07:44;3.17;;;1.70;;
32790;SDS011;19143;59.322;14.502;2023-07-31T06:10:12;1.67;;;1.57;;
32790;SDS011;19143;59.322;14.502;2023-07-31T06:12:41;4.80;;;1.67;;
32790;SDS011;19143;59.322;14.502;2023-07-31T06:15:10;5.80;;;1.70;;
32790;SDS011;19143;59.322;14.502;2023-07-31T06:17:37;1.70;;;1.57;;
32790;SDS011;19143;59.322;14.502;2023-07-31T06:20:08;5.10;;;1.67;;
32790;SDS011;19143;59.322;14.502;2023-07-31T06:22:36;1.40;;;1.33;;
32790;SDS011;19143;59.322;14.502;2023-07-31T06:25:04;4.00;;;1.60;;
32790;SDS011;19143;59.322;14.502;2023-07-31T06:27:33;1.43;;;1.33;;
32790;SDS011;19143;59.322;14.502;2023-07-31T06:30:02;2.83;;;1.40;;
32790;SDS011;19143;59.322;14.502;2023-07-31T06:32:31;1.70;;;1.60;;
32790;SDS011;19143;59.322;14.502;2023-07-31T06:34:59;1.70;;;1.60;;
32790;SDS011;19143;59.322;14.502;2023-07-31T06:37:30;2.03;;;1.47;;
32790;SDS011;19143;59.322;14.502;2023-07-31T06:39:58;5.30;;;1.47;;
32790;SDS011;19143;59.322;14.502;2023-07-31T06:42:26;3.17;;;1.53;;
32790;SDS011;19143;59.322;14.502;2023-07-31T06:44:54;7.00;;;1.47;;
32790;SDS011;19143;59.322;14.502;2023-07-31T06:47:23;2.00;;;1.50;;
32790;SDS011;19143;59.322;14.502;2023-07-31T06:49:52;1.53;;;1.43;;
32790;SDS011;19143;59.322;14.502;2023-07-31T06:52:21;1.53;;;1.30;;
32790;SDS011;19143;59.322;14.502;2023-07-31T06:55:01;3.57;;;1.57;;
32790;SDS011;19143;59.322;14.502;2023-07-31T06:57:31;1.57;;;1.33;;
32790;SDS011;19143;59.322;14.502;2023-07-31T06:59:59;4.63;;;1.40;;
32790;SDS011;19143;59.322;14.502;2023-07-31T07:02:27;3.00;;;1.43;;
32790;SDS011;19143;59.322;14.502;2023-07-31T07:04:56;2.30;;;1.30;;
32790;SDS011;19143;59.322;14.502;2023-07-31T07:07:24;1.30;;;1.30;;
32790;SDS011;19143;59.322;14.502;2023-07-31T07:09:52;1.47;;;1.37;;
32790;SDS011;19143;59.322;14.502;2023-07-31T07:12:22;2.30;;;1.30;;
32790;SDS011;19143;59.322;14.502;2023-07-31T07:14:50;3.13;;;1.60;;
32790;SDS011;19143;59.322;14.502;2023-07-31T07:17:19;3.07;;;1.57;;
32790;SDS011;19143;59.322;14.502;2023-07-31T07:19:48;2.30;;;1.50;;
32790;SDS011;19143;59.322;14.502;2023-07-31T07:22:17;1.60;;;1.30;;
32790;SDS011;19143;59.322;14.502;2023-07-31T07:24:45;3.67;;;1.57;;
32790;SDS011;19143;59.322;14.502;2023-07-31T07:27:20;2.73;;;1.37;;
32790;SDS011;19143;59.322;14.502;2023-07-31T07:30:06;2.33;;;1.50;;
32790;SDS011;19143;59.322;14.502;2023-07-31T07:32:35;2.73;;;1.50;;
32790;SDS011;19143;59.322;14.502;2023-07-31T07:35:04;2.50;;;1.50;;
32790;SDS011;19143;59.322;14.502;2023-07-31T07:37:32;3.63;;;1.37;;
32790;SDS011;19143;59.322;14.502;2023-07-31T07:40:04;2.77;;;1.40;;
32790;SDS011;19143;59.322;14.502;2023-07-31T07:42:40;2.30;;;1.50;;
32790;SDS011;19143;59.322;14.502;2023-07-31T07:45:10;1.20;;;1.00;;
32790;SDS011;19143;59.322;14.502;2023-07-31T07:47:40;2.73;;;1.37;;
32790;SDS011;19143;59.322;14.502;2023-07-31T07:50:10;3.33;;;1.57;;
32790;SDS011;19143;59.322;14.502;2023-07-31T07:52:41;1.87;;;1.40;;
32790;SDS011;19143;59.322;14.502;2023-07-31T07:55:10;2.93;;;1.53;;
32790;SDS011;19143;59.322;14.502;2023-07-31T07:57:39;1.10;;;1.10;;
32790;SDS011;19143;59.322;14.502;2023-07-31T08:00:13;2.77;;;1.30;;
32790;SDS011;19143;59.322;14.502;2023-07-31T08:02:42;1.40;;;1.30;;
32790;SDS011;19143;59.322;14.502;2023-07-31T08:05:11;1.70;;;1.40;;
32790;SDS011;19143;59.322;14.502;2023-07-31T08:07:40;5.93;;;1.57;;
32790;SDS011;19143;59.322;14.502;2023-07-31T08:10:08;2.50;;;1.47;;
32790;SDS011;19143;59.322;14.502;2023-07-31T08:12:37;1.27;;;1.17;;
32790;SDS011;19143;59.322;14.502;2023-07-31T08:15:05;1.80;;;1.13;;
32790;SDS011;19143;59.322;14.502;2023-07-31T08:17:36;1.83;;;1.30;;
32790;SDS011;19143;59.322;14.502;2023-07-31T08:20:04;3.10;;;1.20;;
32790;SDS011;19143;59.322;14.502;2023-07-31T08:22:33;6.33;;;1.47;;
32790;SDS011;19143;59.322;14.502;2023-07-31T08:25:01;2.10;;;1.10;;
32790;SDS011;19143;59.322;14.502;2023-07-31T08:27:29;1.03;;;1.03;;
32790;SDS011;19143;59.322;14.502;2023-07-31T08:29:57;1.40;;;1.30;;
32790;SDS011;19143;59.322;14.502;2023-07-31T08:32:25;3.40;;;1.60;;
32790;SDS011;19143;59.322;14.502;2023-07-31T08:34:55;1.33;;;1.00;;
32790;SDS011;19143;59.322;14.502;2023-07-31T08:37:23;1.10;;;1.10;;
32790;SDS011;19143;59.322;14.502;2023-07-31T08:39:52;4.40;;;1.20;;
32790;SDS011;19143;59.322;14.502;2023-07-31T08:42:20;2.70;;;1.10;;
32790;SDS011;19143;59.322;14.502;2023-07-31T08:44:48;1.47;;;1.10;;
32790;SDS011;19143;59.322;14.502;2023-07-31T08:47:17;1.20;;;1.20;;
32790;SDS011;19143;59.322;14.502;2023-07-31T08:49:46;3.67;;;1.40;;
32790;SDS011;19143;59.322;14.502;2023-07-31T08:52:18;4.27;;;1.10;;
32790;SDS011;19143;59.322;14.502;2023-07-31T08:54:46;2.70;;;1.30;;
32790;SDS011;19143;59.322;14.502;2023-07-31T08:57:15;3.53;;;1.60;;
32790;SDS011;19143;59.322;14.502;2023-07-31T08:59:44;2.53;;;1.27;;
32790;SDS011;19143;59.322;14.502;2023-07-31T09:02:13;1.80;;;1.30;;
32790;SDS011;19143;59.322;14.502;2023-07-31T09:04:43;1.53;;;1.23;;
32790;SDS011;19143;59.322;14.502;2023-07-31T09:07:11;1.67;;;1.30;;
32790;SDS011;19143;59.322;14.502;2023-07-31T09:09:42;1.30;;;1.30;;
32790;SDS011;19143;59.322;14.502;2023-07-31T09:12:11;2.57;;;1.20;;
32790;SDS011;19143;59.322;14.502;2023-07-31T09:14:40;1.20;;;1.10;;
32790;SDS011;19143;59.322;14.502;2023-07-31T09:17:10;1.63;;;1.30;;
32790;SDS011;19143;59.322;14.502;2023-07-31T09:19:39;1.17;;;1.07;;
32790;SDS011;19143;59.322;14.502;2023-07-31T09:22:06;0.80;;;0.80;;
32790;SDS011;19143;59.322;14.502;2023-07-31T09:24:36;2.07;;;1.20;;
32790;SDS011;19143;59.322;14.502;2023-07-31T09:27:09;1.03;;;1.03;;
32790;SDS011;19143;59.322;14.502;2023-07-31T09:29:38;1.80;;;1.50;;
32790;SDS011;19143;59.322;14.502;2023-07-31T09:32:07;3.60;;;1.23;;
32790;SDS011;19143;59.322;14.502;2023-07-31T09:34:44;1.00;;;1.00;;
32790;SDS011;19143;59.322;14.502;2023-07-31T09:37:12;3.20;;;1.17;;
32790;SDS011;19143;59.322;14.502;2023-07-31T09:39:46;1.30;;;1.20;;
32790;SDS011;19143;59.322;14.502;2023-07-31T09:42:16;1.30;;;1.10;;
32790;SDS011;19143;59.322;14.502;2023-07-31T09:44:52;1.20;;;1.20;;
32790;SDS011;19143;59.322;14.502;2023-07-31T09:47:23;1.10;;;1.10;;
32790;SDS011;19143;59.322;14.502;2023-07-31T09:49:51;3.40;;;1.40;;
32790;SDS011;19143;59.322;14.502;2023-07-31T09:52:20;3.80;;;1.70;;
32790;SDS011;19143;59.322;14.502;2023-07-31T09:54:49;1.30;;;1.20;;
32790;SDS011;19143;59.322;14.502;2023-07-31T09:57:21;4.57;;;1.23;;
32790;SDS011;19143;59.322;14.502;2023-07-31T09:59:51;3.30;;;1.40;;
32790;SDS011;19143;59.322;14.502;2023-07-31T10:02:20;2.87;;;1.30;;
32790;SDS011;19143;59.322;14.502;2023-07-31T10:04:49;1.23;;;1.20;;
32790;SDS011;19143;59.322;14.502;2023-07-31T10:07:19;1.30;;;1.20;;
32790;SDS011;19143;59.322;14.502;2023-07-31T10:09:48;1.10;;;1.10;;
32790;SDS011;19143;59.322;14.502;2023-07-31T10:12:16;1.20;;;1.20;;
32790;SDS011;19143;59.322;14.502;2023-07-31T10:15:01;1.37;;;1.00;;
32790;SDS011;19143;59.322;14.502;2023-07-31T10:17:30;2.00;;;1.30;;
32790;SDS011;19143;59.322;14.502;2023-07-31T10:20:00;4.27;;;1.60;;
32790;SDS011;19143;59.322;14.502;2023-07-31T10:22:29;2.60;;;1.50;;
32790;SDS011;19143;59.322;14.502;2023-07-31T10:24:58;1.57;;;1.30;;
32790;SDS011;19143;59.322;14.502;2023-07-31T10:27:39;8.13;;;1.60;;
32790;SDS011;19143;59.322;14.502;2023-07-31T10:30:10;2.93;;;1.60;;
32790;SDS011;19143;59.322;14.502;2023-07-31T10:32:40;3.57;;;1.33;;
32790;SDS011;19143;59.322;14.502;2023-07-31T10:35:09;2.07;;;1.30;;
32790;SDS011;19143;59.322;14.502;2023-07-31T10:37:39;3.03;;;1.30;;
32790;SDS011;19143;59.322;14.502;2023-07-31T10:40:10;4.27;;;1.33;;
32790;SDS011;19143;59.322;14.502;2023-07-31T10:42:45;2.03;;;1.60;;
32790;SDS011;19143;59.322;14.502;2023-07-31T10:45:23;9.17;;;2.23;;
32790;SDS011;19143;59.322;14.502;2023-07-31T10:47:58;6.10;;;2.17;;
32790;SDS011;19143;59.322;14.502;2023-07-31T10:50:28;1.97;;;1.57;;
32790;SDS011;19143;59.322;14.502;2023-07-31T10:52:58;1.77;;;1.67;;
32790;SDS011;19143;59.322;14.502;2023-07-31T10:55:28;4.50;;;1.40;;
32790;SDS011;19143;59.322;14.502;2023-07-31T10:57:57;2.03;;;1.50;;
32790;SDS011;19143;59.322;14.502;2023-07-31T11:00:28;1.73;;;1.40;;
32790;SDS011;19143;59.322;14.502;2023-07-31T11:03:00;1.77;;;1.67;;
32790;SDS011;19143;59.322;14.502;2023-07-31T11:05:44;2.80;;;1.80;;
32790;SDS011;19143;59.322;14.502;2023-07-31T11:08:12;1.60;;;1.53;;
32790;SDS011;19143;59.322;14.502;2023-07-31T11:10:42;3.87;;;1.20;;
32790;SDS011;19143;59.322;14.502;2023-07-31T11:13:10;1.33;;;1.23;;
32790;SDS011;19143;59.322;14.502;2023-07-31T11:15:43;1.83;;;1.30;;
32790;SDS011;19143;59.322;14.502;2023-07-31T11:18:11;1.20;;;1.20;;
32790;SDS011;19143;59.322;14.502;2023-07-31T11:20:40;4.83;;;1.20;;
32790;SDS011;19143;59.322;14.502;2023-07-31T11:23:09;1.33;;;1.20;;
32790;SDS011;19143;59.322;14.502;2023-07-31T11:25:40;1.20;;;1.10;;
32790;SDS011;19143;59.322;14.502;2023-07-31T11:28:08;1.00;;;1.00;;
32790;SDS011;19143;59.322;14.502;2023-07-31T11:30:37;1.40;;;1.20;;
32790;SDS011;19143;59.322;14.502;2023-07-31T11:33:09;1.00;;;1.00;;
32790;SDS011;19143;59.322;14.502;2023-07-31T11:35:40;0.90;;;0.90;;
32790;SDS011;19143;59.322;14.502;2023-07-31T11:38:11;1.07;;;1.00;;
32790;SDS011;19143;59.322;14.502;2023-07-31T11:40:42;1.00;;;1.00;;
32790;SDS011;19143;59.322;14.502;2023-07-31T11:43:11;1.37;;;1.27;;
32790;SDS011;19143;59.322;14.502;2023-07-31T11:45:44;1.50;;;1.40;;
32790;SDS011;19143;59.322;14.502;2023-07-31T11:48:20;1.20;;;1.10;;
32790;SDS011;19143;59.322;14.502;2023-07-31T11:50:49;3.13;;;1.60;;
32790;SDS011;19143;59.322;14.502;2023-07-31T11:53:19;1.60;;;1.30;;
32790;SDS011;19143;59.322;14.502;2023-07-31T11:55:48;3.40;;;1.60;;
32790;SDS011;19143;59.322;14.502;2023-07-31T11:58:17;1.33;;;1.23;;
32790;SDS011;19143;59.322;14.502;2023-07-31T12:00:46;1.33;;;1.30;;
32790;SDS011;19143;59.322;14.502;2023-07-31T12:03:15;3.27;;;1.20;;
32790;SDS011;19143;59.322;14.502;2023-07-31T12:05:45;1.37;;;1.27;;
32790;SDS011;19143;59.322;14.502;2023-07-31T12:08:15;1.00;;;1.00;;
32790;SDS011;19143;59.322;14.502;2023-07-31T12:10:43;3.27;;;1.20;;
32790;SDS011;19143;59.322;14.502;2023-07-31T12:13:20;1.07;;;0.93;;
32790;SDS011;19143;59.322;14.502;2023-07-31T12:15:49;1.50;;;1.30;;
32790;SDS011;19143;59.322;14.502;2023-07-31T12:18:21;1.50;;;1.40;;
32790;SDS011;19143;59.322;14.502;2023-07-31T12:20:55;2.70;;;1.33;;
32790;SDS011;19143;59.322;14.502;2023-07-31T12:23:25;2.70;;;1.30;;
32790;SDS011;19143;59.322;14.502;2023-07-31T12:26:01;1.50;;;1.40;;
32790;SDS011;19143;59.322;14.502;2023-07-31T12:28:30;2.50;;;1.30;;
32790;SDS011;19143;59.322;14.502;2023-07-31T12:31:00;1.20;;;1.20;;
32790;SDS011;19143;59.322;14.502;2023-07-31T12:33:30;1.57;;;1.27;;
32790;SDS011;19143;59.322;14.502;2023-07-31T12:36:03;2.13;;;1.20;;
32790;SDS011;19143;59.322;14.502;2023-07-31T12:38:32;2.00;;;1.30;;
32790;SDS011;19143;59.322;14.502;2023-07-31T12:41:02;1.07;;;1.07;;
32790;SDS011;19143;59.322;14.502;2023-07-31T12:43:32;2.67;;;1.33;;
32790;SDS011;19143;59.322;14.502;2023-07-31T12:46:02;2.00;;;1.20;;
32790;SDS011;19143;59.322;14.502;2023-07-31T12:48:42;2.53;;;1.10;;
32790;SDS011;19143;59.322;14.502;2023-07-31T12:51:13;1.10;;;1.10;;
32790;SDS011;19143;59.322;14.502;2023-07-31T12:53:41;1.57;;;1.30;;
32790;SDS011;19143;59.322;14.502;2023-07-31T12:56:09;1.40;;;1.30;;
32790;SDS011;19143;59.322;14.502;2023-07-31T12:58:37;1.53;;;1.43;;
32790;SDS011;19143;59.322;14.502;2023-07-31T13:01:07;1.50;;;1.40;;
32790;SDS011;19143;59.322;14.502;2023-07-31T13:03:35;2.10;;;1.27;;
32790;SDS011;19143;59.322;14.502;2023-07-31T13:06:04;1.57;;;1.47;;
32790;SDS011;19143;59.322;14.502;2023-07-31T13:08:35;2.43;;;1.33;;
32790;SDS011;19143;59.322;14.502;2023-07-31T13:11:04;2.10;;;1.30;;
32790;SDS011;19143;59.322;14.502;2023-07-31T13:13:31;1.50;;;1.40;;
32790;SDS011;19143;59.322;14.502;2023-07-31T13:15:59;1.00;;;1.00;;
32790;SDS011;19143;59.322;14.502;2023-07-31T13:18:27;5.87;;;1.33;;
32790;SDS011;19143;59.322;14.502;2023-07-31T13:20:55;1.50;;;1.10;;
32790;SDS011;19143;59.322;14.502;2023-07-31T13:23:24;1.07;;;1.07;;
32790;SDS011;19143;59.322;14.502;2023-07-31T13:25:57;1.80;;;1.10;;
32790;SDS011;19143;59.322;14.502;2023-07-31T13:28:26;1.13;;;1.10;;
32790;SDS011;19143;59.322;14.502;2023-07-31T13:30:58;3.50;;;1.30;;
32790;SDS011;19143;59.322;14.502;2023-07-31T13:33:27;1.23;;;1.20;;
32790;SDS011;19143;59.322;14.502;2023-07-31T13:35:59;1.50;;;1.20;;
32790;SDS011;19143;59.322;14.502;2023-07-31T13:38:27;1.13;;;1.07;;
32790;SDS011;19143;59.322;14.502;2023-07-31T13:40:58;1.53;;;1.20;;
32790;SDS011;19143;59.322;14.502;2023-07-31T13:43:27;1.43;;;1.33;;
32790;SDS011;19143;59.322;14.502;2023-07-31T13:45:56;1.20;;;1.20;;
32790;SDS011;19143;59.322;14.502;2023-07-31T13:48:29;1.17;;;1.00;;
32790;SDS011;19143;59.322;14.502;2023-07-31T13:50:57;1.40;;;1.30;;
32790;SDS011;19143;59.322;14.502;2023-07-31T13:53:26;1.33;;;1.23;;
32790;SDS011;19143;59.322;14.502;2023-07-31T13:55:54;1.27;;;1.27;;
32790;SDS011;19143;59.322;14.502;2023-07-31T13:58:25;2.10;;;1.10;;
32790;SDS011;19143;59.322;14.502;2023-07-31T14:00:53;1.37;;;1.20;;
32790;SDS011;19143;59.322;14.502;2023-07-31T14:03:22;1.20;;;1.10;;
32790;SDS011;19143;59.322;14.502;2023-07-31T14:05:51;2.50;;;1.20;;
32790;SDS011;19143;59.322;14.502;2023-07-31T14:08:20;1.40;;;1.30;;
32790;SDS011;19143;59.322;14.502;2023-07-31T14:10:48;2.40;;;1.30;;
32790;SDS011;19143;59.322;14.502;2023-07-31T14:13:17;2.37;;;1.20;;
32790;SDS011;19143;59.322;14.502;2023-07-31T14:15:46;2.10;;;1.50;;
32790;SDS011;19143;59.322;14.502;2023-07-31T14:18:15;2.10;;;1.30;;
32790;SDS011;19143;59.322;14.502;2023-07-31T14:20:44;1.40;;;1.30;;
32790;SDS011;19143;59.322;14.502;2023-07-31T14:23:13;2.00;;;1.40;;
32790;SDS011;19143;59.322;14.502;2023-07-31T14:25:41;1.53;;;1.43;;
32790;SDS011;19143;59.322;14.502;2023-07-31T14:28:10;3.23;;;1.27;;
32790;SDS011;19143;59.322;14.502;2023-07-31T14:30:38;1.50;;;1.40;;
32790;SDS011;19143;59.322;14.502;2023-07-31T14:33:08;1.33;;;1.23;;
32790;SDS011;19143;59.322;14.502;2023-07-31T14:35:37;5.40;;;1.60;;
32790;SDS011;19143;59.322;14.502;2023-07-31T14:38:06;1.73;;;1.40;;
32790;SDS011;19143;59.322;14.502;2023-07-31T14:40:34;1.43;;;1.33;;
32790;SDS011;19143;59.322;14.502;2023-07-31T14:43:02;1.40;;;1.30;;
32790;SDS011;19143;59.322;14.502;2023-07-31T14:45:31;4.37;;;1.60;;
32790;SDS011;19143;59.322;14.502;2023-07-31T14:47:59;1.50;;;1.40;;
32790;SDS011;19143;59.322;14.502;2023-07-31T14:50:34;1.60;;;1.30;;